Maple Ridge, Canada
Current Conditions -  °F | °C
As of 8:09 AM on Thursday 23 Oct 2014 (Local Time) from CYXX Reporting Station
Rain Showers Rain Showers  
Wind Chill: 50°   Ceiling: 4000
Heat Index: 50°   Visibility: 10mi
Dew Point: 50°   Wind: 6mph
Humidity: 100%   Direction: 70°ENE
Pressure: 29.7"   Gusts: NA
Location:  49.22°N, 122.6°W
Report Text: CYXX 231509Z 07005KT 10SM -SHRA FEW003 SCT020 OVC040 10/10 A2970 RMK SF1SC2SC5 CVCTV CLD EMBD SLP057
Loading
Personal Weather Stations






























Interactive Weather Map
Tropical Storm Tracking
New forecast layout! Learn more

10-Day Weather Forecast

Advertisements
Track Severe Weather on mobile